createdAt,value
2022-10-03T00:00:13.072Z,99211.31
2022-10-03T00:02:57.680Z,99212.97
2022-10-03T00:05:52.129Z,99209.13
2022-10-03T00:08:40.160Z,99216.41
2022-10-03T00:11:24.709Z,99217.41
2022-10-03T00:14:14.352Z,99212.28
2022-10-03T00:16:52.589Z,99211.66
2022-10-03T00:19:44.022Z,99216.75
2022-10-03T00:22:21.259Z,99215.78
2022-10-03T00:25:13.638Z,99206.84
2022-10-03T00:27:47.871Z,99206.16
2022-10-03T00:30:20.326Z,99202.53
2022-10-03T00:33:11.676Z,99213.97
2022-10-03T00:36:04.924Z,99210.03
2022-10-03T00:38:50.119Z,99208.06
2022-10-03T00:41:22.511Z,99207.88
2022-10-03T00:44:25.803Z,99196.13
2022-10-03T00:47:32.497Z,99194.47
2022-10-03T00:50:07.680Z,99188.16
2022-10-03T00:52:51.884Z,99188.22
2022-10-03T00:55:27.513Z,99186.53
2022-10-03T00:58:12.712Z,99189.03
2022-10-03T01:00:41.711Z,99188.03
2022-10-03T01:03:27.607Z,99176.63
2022-10-03T01:05:56.968Z,99170.34
2022-10-03T01:08:47.779Z,99173.16
2022-10-03T01:11:36.446Z,99178.91
2022-10-03T01:14:21.296Z,99169.69
2022-10-03T01:17:17.901Z,99170.00
2022-10-03T01:20:03.065Z,99173.66
2022-10-03T01:22:51.554Z,99159.09
2022-10-03T01:25:37.987Z,99162.75
2022-10-03T01:28:58.334Z,99155.63
2022-10-03T01:31:34.357Z,99154.31
2022-10-03T01:34:08.546Z,99153.97
2022-10-03T01:37:03.235Z,99157.44
2022-10-03T01:39:34.739Z,99143.91
2022-10-03T01:42:17.973Z,99148.81
2022-10-03T01:44:44.308Z,99146.69
2022-10-03T01:47:20.200Z,99149.88
2022-10-03T01:50:16.040Z,99148.53
2022-10-03T01:53:21.600Z,99151.84
2022-10-03T01:56:05.011Z,99144.72
2022-10-03T01:58:52.784Z,99155.31
2022-10-03T02:01:21.888Z,99151.84
2022-10-03T02:04:11.787Z,99150.16
2022-10-03T02:07:13.322Z,99143.38
2022-10-03T02:10:00.009Z,99133.63
2022-10-03T02:12:35.572Z,99136.28
2022-10-03T02:15:05.799Z,99140.44
2022-10-03T02:17:55.135Z,99129.16
2022-10-03T02:20:28.033Z,99130.50
2022-10-03T02:22:56.795Z,99137.94
2022-10-03T02:25:52.063Z,99133.97
2022-10-03T02:28:47.104Z,99129.69
2022-10-03T02:31:48.409Z,99127.38
2022-10-03T02:34:26.552Z,99137.81
2022-10-03T02:37:27.603Z,99136.97
2022-10-03T02:40:12.788Z,99133.03
2022-10-03T02:43:06.819Z,99129.69
2022-10-03T02:45:54.779Z,99126.06
2022-10-03T02:48:38.570Z,99122.94
2022-10-03T02:51:39.928Z,99121.94
2022-10-03T02:54:21.188Z,99124.41
2022-10-03T02:57:25.367Z,99120.44
2022-10-03T03:00:18.399Z,99121.25
2022-10-03T03:03:22.488Z,99125.06
2022-10-03T03:06:10.861Z,99112.13
2022-10-03T03:09:16.316Z,99122.09
2022-10-03T03:11:59.490Z,99112.47
2022-10-03T03:15:19.145Z,99105.88
2022-10-03T03:18:04.301Z,99106.19
2022-10-03T03:20:57.222Z,99107.50
2022-10-03T03:23:41.453Z,99109.81
2022-10-03T03:26:19.795Z,99106.00
2022-10-03T03:28:55.469Z,99110.19
2022-10-03T03:31:31.606Z,99112.97
2022-10-03T03:34:21.628Z,99104.84
2022-10-03T03:36:55.383Z,99100.06
2022-10-03T03:39:50.451Z,99106.50
2022-10-03T03:43:11.062Z,99090.59
2022-10-03T03:45:46.159Z,99095.91
2022-10-03T03:48:38.383Z,99083.81
2022-10-03T03:51:27.284Z,99089.13
2022-10-03T03:54:31.254Z,99085.47
2022-10-03T03:57:28.685Z,99089.94
2022-10-03T03:59:57.911Z,99091.94
2022-10-03T04:02:26.088Z,99084.97
2022-10-03T04:05:08.413Z,99085.31
2022-10-03T04:07:53.509Z,99071.38
2022-10-03T04:10:33.955Z,99068.06
2022-10-03T04:13:25.080Z,99065.75
2022-10-03T04:16:43.422Z,99065.75
2022-10-03T04:19:15.939Z,99059.44
2022-10-03T04:21:59.696Z,99051.31
2022-10-03T04:24:46.614Z,99045.66
2022-10-03T04:27:54.796Z,99053.47
2022-10-03T04:30:51.610Z,99044.19
2022-10-03T04:33:37.964Z,99048.00
2022-10-03T04:36:22.989Z,99038.06
2022-10-03T04:39:20.293Z,99040.06
2022-10-03T04:42:04.139Z,99038.75
2022-10-03T04:44:50.491Z,99046.53
2022-10-03T04:47:22.780Z,99043.22
2022-10-03T04:50:04.226Z,99034.59
2022-10-03T04:52:51.118Z,99039.91
2022-10-03T04:55:40.558Z,99037.91
2022-10-03T04:58:44.897Z,99033.28
2022-10-03T05:01:21.230Z,99029.13
2022-10-03T05:04:10.555Z,99031.59
2022-10-03T05:07:04.374Z,99036.56
2022-10-03T05:09:55.541Z,99028.63
2022-10-03T05:12:40.257Z,99030.44
2022-10-03T05:15:27.007Z,99033.91
2022-10-03T05:18:08.424Z,99034.91
2022-10-03T05:20:45.073Z,99022.28
2022-10-03T05:23:19.165Z,99020.16
2022-10-03T05:26:24.690Z,99015.81
2022-10-03T05:29:10.959Z,99020.47
2022-10-03T05:32:02.066Z,99024.59
2022-10-03T05:34:39.099Z,99018.31
2022-10-03T05:37:29.738Z,99018.63
2022-10-03T05:39:58.192Z,99020.28
2022-10-03T05:42:36.051Z,99019.81
2022-10-03T05:45:24.399Z,99010.31
2022-10-03T05:48:17.973Z,99012.00
2022-10-03T05:51:09.084Z,99025.06
2022-10-03T05:54:18.442Z,99017.44
2022-10-03T05:56:58.087Z,99022.41
2022-10-03T05:59:51.494Z,99025.72
2022-10-03T06:02:33.113Z,99019.91
2022-10-03T06:05:15.629Z,99025.84
2022-10-03T06:08:06.235Z,99024.88
2022-10-03T06:10:50.978Z,99018.22
2022-10-03T06:13:30.649Z,99017.72
2022-10-03T06:16:04.442Z,99012.72
2022-10-03T06:19:04.572Z,99005.28
2022-10-03T06:21:58.639Z,99002.25
2022-10-03T06:25:01.199Z,99005.22
2022-10-03T06:28:05.181Z,98999.91
2022-10-03T06:30:46.253Z,98997.91
2022-10-03T06:33:40.391Z,99000.88
2022-10-03T06:36:44.856Z,99000.75
2022-10-03T06:39:44.867Z,98993.94
2022-10-03T06:42:21.246Z,99001.28
2022-10-03T06:45:03.260Z,98998.63
2022-10-03T06:47:41.273Z,98994.31
2022-10-03T06:50:13.780Z,98998.13
2022-10-03T06:52:50.027Z,98994.00
2022-10-03T06:56:03.575Z,98998.28
2022-10-03T06:58:59.017Z,98996.28
2022-10-03T07:02:25.148Z,98996.50
2022-10-03T07:05:04.561Z,99006.91
2022-10-03T07:07:36.752Z,99005.06
2022-10-03T07:10:14.281Z,98996.59
2022-10-03T07:13:15.515Z,98997.25
2022-10-03T07:16:20.927Z,98995.25
2022-10-03T07:19:16.799Z,98998.41
2022-10-03T07:22:25.023Z,98992.91
2022-10-03T07:25:28.978Z,98998.19
2022-10-03T07:28:04.911Z,99005.66
2022-10-03T07:30:55.739Z,99007.47
2022-10-03T07:33:39.097Z,99000.63
2022-10-03T07:37:02.827Z,99006.25
2022-10-03T07:39:48.282Z,98999.69
2022-10-03T07:42:56.858Z,98997.06
2022-10-03T07:46:07.873Z,99004.88
2022-10-03T07:49:08.124Z,99002.81
2022-10-03T07:51:45.214Z,99015.06
2022-10-03T07:54:45.737Z,99002.19
2022-10-03T07:57:43.608Z,98992.00
2022-10-03T08:00:22.973Z,99008.47
2022-10-03T08:03:15.318Z,99019.44
2022-10-03T08:06:05.036Z,99016.41
2022-10-03T08:09:07.721Z,99023.06
2022-10-03T08:12:22.903Z,99012.06
2022-10-03T08:15:04.771Z,99007.25
2022-10-03T08:17:50.346Z,99011.91
2022-10-03T08:20:40.976Z,99018.69
2022-10-03T08:23:44.913Z,99016.81
2022-10-03T08:26:41.486Z,99012.31
2022-10-03T08:29:22.663Z,99001.75
2022-10-03T08:32:17.736Z,98998.94
2022-10-03T08:35:05.879Z,99005.97
2022-10-03T08:38:02.024Z,99008.34
2022-10-03T08:41:13.388Z,99002.84
2022-10-03T08:44:04.814Z,99011.13
2022-10-03T08:47:08.574Z,99009.81
2022-10-03T08:49:57.616Z,99007.97
2022-10-03T08:53:03.304Z,98998.00
2022-10-03T08:56:05.639Z,99004.66
2022-10-03T08:58:56.986Z,99021.75
2022-10-03T09:02:01.391Z,99015.59
2022-10-03T09:04:39.541Z,99013.53
2022-10-03T09:07:37.002Z,99031.59
2022-10-03T09:10:43.105Z,99023.69
2022-10-03T09:13:15.503Z,99040.13
2022-10-03T09:16:06.290Z,99029.84
2022-10-03T09:18:54.382Z,99038.16
2022-10-03T09:21:39.904Z,99047.84
2022-10-03T09:24:18.533Z,99034.59
2022-10-03T09:27:25.341Z,99035.13
2022-10-03T09:30:36.703Z,99039.28
2022-10-03T09:33:24.542Z,99040.09
2022-10-03T09:36:11.677Z,99041.44
2022-10-03T09:38:59.012Z,99051.91
2022-10-03T09:42:03.144Z,99057.53
2022-10-03T09:44:40.741Z,99062.91
2022-10-03T09:47:30.764Z,99069.00
2022-10-03T09:50:36.565Z,99072.03
2022-10-03T09:53:32.169Z,99071.31
2022-10-03T09:56:35.061Z,99071.63
2022-10-03T09:59:24.488Z,99073.25
2022-10-03T10:02:15.302Z,99060.19
2022-10-03T10:05:12.641Z,99070.69
2022-10-03T10:08:01.533Z,99075.63
2022-10-03T10:10:51.528Z,99085.91
2022-10-03T10:14:07.625Z,99085.72
2022-10-03T10:17:03.231Z,99096.94
2022-10-03T10:19:29.961Z,99095.47
2022-10-03T10:22:27.562Z,99104.53
2022-10-03T10:25:09.469Z,99106.44
2022-10-03T10:28:04.847Z,99107.25
2022-10-03T10:31:09.101Z,99110.63
2022-10-03T10:33:57.088Z,99111.97
2022-10-03T10:37:02.047Z,99113.97
2022-10-03T10:39:34.945Z,99121.66
2022-10-03T10:42:18.651Z,99118.00
2022-10-03T10:45:14.205Z,99123.34
2022-10-03T10:47:48.921Z,99144.44
2022-10-03T10:50:25.264Z,99147.56
2022-10-03T10:53:29.141Z,99139.22
2022-10-03T10:56:14.769Z,99149.31
2022-10-03T10:58:44.341Z,99150.06
2022-10-03T11:01:52.484Z,99160.97
2022-10-03T11:04:53.123Z,99161.94
2022-10-03T11:07:56.810Z,99181.16
2022-10-03T11:10:35.768Z,99176.44
2022-10-03T11:13:18.649Z,99180.78
2022-10-03T11:16:03.926Z,99192.91
2022-10-03T11:19:04.752Z,99204.56
2022-10-03T11:21:46.414Z,99203.84
2022-10-03T11:24:47.056Z,99218.09
2022-10-03T11:27:36.868Z,99217.34
2022-10-03T11:30:40.881Z,99232.06
2022-10-03T11:33:49.789Z,99228.94
2022-10-03T11:36:48.230Z,99242.63
2022-10-03T11:39:56.201Z,99241.78
2022-10-03T11:42:39.863Z,99239.94
2022-10-03T11:45:16.293Z,99249.22
2022-10-03T11:48:13.206Z,99247.09
2022-10-03T11:50:43.909Z,99260.22
2022-10-03T11:53:47.158Z,99251.09
2022-10-03T11:56:22.555Z,99254.84
2022-10-03T11:59:26.676Z,99250.28
2022-10-03T12:02:34.513Z,99258.91
2022-10-03T12:05:25.665Z,99266.00
2022-10-03T12:08:30.043Z,99262.53
2022-10-03T12:11:33.212Z,99251.94
2022-10-03T12:14:19.751Z,99274.53
2022-10-03T12:17:16.951Z,99258.91
2022-10-03T12:19:56.264Z,99270.34
2022-10-03T12:22:50.218Z,99273.25
2022-10-03T12:25:21.553Z,99282.03
2022-10-03T12:28:03.498Z,99273.38
2022-10-03T12:30:47.348Z,99275.06
2022-10-03T12:33:35.327Z,99288.53
2022-10-03T12:36:29.178Z,99301.53
2022-10-03T12:39:31.898Z,99302.78
2022-10-03T12:42:26.747Z,99308.78
2022-10-03T12:45:00.265Z,99309.53
2022-10-03T12:47:56.701Z,99310.50
2022-10-03T12:50:57.586Z,99307.28
2022-10-03T12:53:30.273Z,99320.03
2022-10-03T12:56:25.951Z,99331.56
2022-10-03T12:59:15.841Z,99333.84
2022-10-03T13:01:59.560Z,99342.75
2022-10-03T13:04:35.129Z,99352.16
2022-10-03T13:07:26.331Z,99337.22
2022-10-03T13:10:19.911Z,99346.13
2022-10-03T13:12:54.741Z,99356.66
2022-10-03T13:15:40.507Z,99354.28
2022-10-03T13:18:45.020Z,99356.38
2022-10-03T13:21:44.952Z,99361.44
2022-10-03T13:24:26.268Z,99359.84
2022-10-03T13:27:23.812Z,99374.91
2022-10-03T13:29:55.394Z,99370.44
2022-10-03T13:32:30.610Z,99372.94
2022-10-03T13:35:33.317Z,99372.09
2022-10-03T13:38:26.452Z,99375.66
2022-10-03T13:41:27.947Z,99376.34
2022-10-03T13:44:10.074Z,99389.75
2022-10-03T13:47:15.520Z,99383.03
2022-10-03T13:49:59.123Z,99390.13
2022-10-03T13:52:44.331Z,99391.47
2022-10-03T13:55:28.953Z,99393.88
2022-10-03T13:58:25.243Z,99392.13
2022-10-03T14:01:11.604Z,99400.78
2022-10-03T14:04:09.517Z,99389.44
2022-10-03T14:06:56.885Z,99396.56
2022-10-03T14:09:45.037Z,99401.81
2022-10-03T14:12:51.004Z,99400.47
2022-10-03T14:15:24.081Z,99398.00
2022-10-03T14:18:01.901Z,99397.44
2022-10-03T14:20:34.545Z,99411.34
2022-10-03T14:23:08.432Z,99410.75
2022-10-03T14:25:41.389Z,99415.88
2022-10-03T14:28:19.915Z,99422.56
2022-10-03T14:31:05.891Z,99411.94
2022-10-03T14:33:51.480Z,99423.66
2022-10-03T14:36:33.242Z,99430.66
2022-10-03T14:39:22.276Z,99427.81
2022-10-03T14:41:52.522Z,99429.91
2022-10-03T14:44:44.861Z,99435.59
2022-10-03T14:47:13.618Z,99431.50
2022-10-03T14:49:56.431Z,99439.69
2022-10-03T14:52:43.917Z,99446.22
2022-10-03T14:55:25.294Z,99452.38
2022-10-03T14:58:10.640Z,99447.22
2022-10-03T15:00:45.506Z,99451.56
2022-10-03T15:03:19.591Z,99460.94
2022-10-03T15:06:04.981Z,99470.03
2022-10-03T15:08:39.482Z,99458.75
2022-10-03T15:11:07.928Z,99472.53
2022-10-03T15:13:51.041Z,99472.78
2022-10-03T15:16:20.897Z,99474.69
2022-10-03T15:19:07.009Z,99481.00
2022-10-03T15:21:34.275Z,99472.91
2022-10-03T15:24:07.667Z,99477.09
2022-10-03T15:26:38.827Z,99490.78
2022-10-03T15:29:06.754Z,99478.00
2022-10-03T15:31:37.147Z,99481.56
2022-10-03T15:34:26.346Z,99479.28
2022-10-03T15:36:58.985Z,99485.63
2022-10-03T15:39:30.421Z,99486.44
2022-10-03T15:42:15.670Z,99486.66
2022-10-03T15:44:53.935Z,99486.88
2022-10-03T15:47:28.613Z,99486.75
2022-10-03T15:49:59.684Z,99498.13
2022-10-03T15:52:41.539Z,99488.81
2022-10-03T15:55:15.037Z,99492.84
2022-10-03T15:57:50.893Z,99501.34
2022-10-03T16:00:28.757Z,99497.69
2022-10-03T16:03:11.043Z,99502.03
2022-10-03T16:05:46.434Z,99504.06
2022-10-03T16:08:19.647Z,99505.06
2022-10-03T16:11:06.151Z,99511.38
2022-10-03T16:13:59.301Z,99510.22
2022-10-03T16:16:37.446Z,99510.69
2022-10-03T16:19:16.300Z,99511.88
2022-10-03T16:21:46.983Z,99515.81
2022-10-03T16:24:20.964Z,99507.88
2022-10-03T16:27:06.894Z,99510.84
2022-10-03T16:29:36.310Z,99524.16
2022-10-03T16:32:06.986Z,99512.84
2022-10-03T16:34:35.288Z,99517.81
2022-10-03T16:37:03.540Z,99517.31
2022-10-03T16:39:37.486Z,99516.00
2022-10-03T16:42:17.771Z,99518.47
2022-10-03T16:44:51.722Z,99516.13
2022-10-03T16:47:20.326Z,99515.13
2022-10-03T16:50:13.609Z,99522.94
2022-10-03T16:52:41.231Z,99529.25
2022-10-03T16:55:18.565Z,99527.72
2022-10-03T16:57:49.812Z,99538.00
2022-10-03T17:00:22.143Z,99526.56
2022-10-03T17:02:48.873Z,99526.34
2022-10-03T17:05:16.575Z,99525.97
2022-10-03T17:07:49.076Z,99527.63
2022-10-03T17:10:39.785Z,99518.28
2022-10-03T17:13:17.900Z,99518.09
2022-10-03T17:16:00.650Z,99527.53
2022-10-03T17:18:35.839Z,99532.06
2022-10-03T17:21:17.240Z,99532.53
2022-10-03T17:24:08.486Z,99535.34
2022-10-03T17:26:40.805Z,99526.69
2022-10-03T17:29:19.689Z,99527.94
2022-10-03T17:31:52.667Z,99535.22
2022-10-03T17:34:40.549Z,99527.50
2022-10-03T17:37:22.296Z,99530.16
2022-10-03T17:39:56.757Z,99531.38
2022-10-03T17:42:42.521Z,99532.81
2022-10-03T17:45:54.538Z,99535.00
2022-10-03T17:48:26.140Z,99533.69
2022-10-03T17:51:11.300Z,99537.53
2022-10-03T17:53:38.604Z,99543.22
2022-10-03T17:56:09.561Z,99537.53
2022-10-03T17:58:37.912Z,99546.31
2022-10-03T18:01:10.548Z,99543.38
2022-10-03T18:04:03.403Z,99547.88
2022-10-03T18:06:31.934Z,99546.31
2022-10-03T18:09:02.149Z,99553.63
2022-10-03T18:11:30.922Z,99553.31
2022-10-03T18:14:11.627Z,99549.06
2022-10-03T18:16:43.727Z,99556.88
2022-10-03T18:19:31.845Z,99557.47
2022-10-03T18:22:15.824Z,99557.47
2022-10-03T18:24:55.422Z,99561.13
2022-10-03T18:27:22.078Z,99563.25
2022-10-03T18:29:53.008Z,99570.66
2022-10-03T18:32:22.800Z,99564.03
2022-10-03T18:34:53.091Z,99567.97
2022-10-03T18:37:28.718Z,99563.66
2022-10-03T18:39:56.970Z,99565.78
2022-10-03T18:42:28.375Z,99577.19
2022-10-03T18:44:56.304Z,99571.06
2022-10-03T18:47:38.791Z,99572.59
2022-10-03T18:50:26.991Z,99565.53
2022-10-03T18:53:13.713Z,99572.53
2022-10-03T18:55:44.647Z,99574.78
2022-10-03T18:58:21.523Z,99582.69
2022-10-03T19:00:53.109Z,99570.41
2022-10-03T19:03:24.503Z,99573.31
2022-10-03T19:06:25.906Z,99579.91
2022-10-03T19:08:59.105Z,99574.59
2022-10-03T19:11:40.665Z,99573.56
2022-10-03T19:14:29.465Z,99570.22
2022-10-03T19:16:57.207Z,99580.69
2022-10-03T19:19:59.076Z,99580.63
2022-10-03T19:22:37.307Z,99583.41
2022-10-03T19:25:05.994Z,99575.75
2022-10-03T19:27:45.338Z,99581.81
2022-10-03T19:30:18.938Z,99580.81
2022-10-03T19:33:03.954Z,99581.22
2022-10-03T19:35:33.043Z,99586.59
2022-10-03T19:38:04.754Z,99585.84
2022-10-03T19:40:45.425Z,99573.13
2022-10-03T19:43:24.089Z,99585.94
2022-10-03T19:45:58.027Z,99584.94
2022-10-03T19:48:27.305Z,99586.44
2022-10-03T19:50:53.736Z,99589.28
2022-10-03T19:53:20.369Z,99585.38
2022-10-03T19:55:47.517Z,99579.63
2022-10-03T19:58:23.172Z,99589.03
2022-10-03T20:00:55.431Z,99587.06
2022-10-03T20:03:40.899Z,99585.38
2022-10-03T20:06:19.414Z,99589.78
2022-10-03T20:08:47.687Z,99581.63
2022-10-03T20:11:45.427Z,99580.09
2022-10-03T20:14:23.640Z,99594.66
2022-10-03T20:16:51.905Z,99592.00
2022-10-03T20:19:23.701Z,99585.19
2022-10-03T20:21:57.631Z,99578.75
2022-10-03T20:24:35.925Z,99595.47
2022-10-03T20:27:24.111Z,99593.06
2022-10-03T20:30:08.778Z,99599.06
2022-10-03T20:32:38.041Z,99597.13
2022-10-03T20:35:05.181Z,99595.03
2022-10-03T20:37:45.711Z,99594.72
2022-10-03T20:40:35.846Z,99588.78
2022-10-03T20:43:29.092Z,99594.84
2022-10-03T20:46:20.415Z,99594.53
2022-10-03T20:49:31.745Z,99596.34
2022-10-03T20:52:04.501Z,99594.38
2022-10-03T20:54:36.500Z,99592.66
2022-10-03T20:57:22.338Z,99591.28
2022-10-03T20:59:52.807Z,99588.16
2022-10-03T21:02:27.424Z,99588.03
2022-10-03T21:05:04.787Z,99586.19
2022-10-03T21:07:43.416Z,99586.19
2022-10-03T21:10:14.396Z,99586.69
2022-10-03T21:12:45.609Z,99575.03
2022-10-03T21:15:34.338Z,99589.63
2022-10-03T21:18:01.847Z,99588.56
2022-10-03T21:20:35.885Z,99585.75
2022-10-03T21:23:09.604Z,99594.25
2022-10-03T21:25:36.948Z,99596.59
2022-10-03T21:28:04.828Z,99594.25
2022-10-03T21:30:45.859Z,99589.84
2022-10-03T21:33:17.944Z,99591.00
2022-10-03T21:35:44.849Z,99594.47
2022-10-03T21:38:34.947Z,99589.72
2022-10-03T21:41:32.294Z,99587.75
2022-10-03T21:44:01.858Z,99589.88
2022-10-03T21:46:36.457Z,99586.84
2022-10-03T21:49:07.269Z,99584.75
2022-10-03T21:51:48.708Z,99590.50
2022-10-03T21:54:25.010Z,99577.94
2022-10-03T21:57:04.533Z,99581.13
2022-10-03T21:59:42.998Z,99586.91
2022-10-03T22:02:27.415Z,99588.66
2022-10-03T22:04:58.000Z,99588.22
2022-10-03T22:07:35.463Z,99585.09
2022-10-03T22:10:04.348Z,99587.06
2022-10-03T22:12:40.800Z,99584.75
2022-10-03T22:15:16.738Z,99596.00
2022-10-03T22:17:54.026Z,99591.06
2022-10-03T22:20:23.214Z,99584.09
2022-10-03T22:23:04.414Z,99589.84
2022-10-03T22:25:44.304Z,99585.75
2022-10-03T22:28:14.890Z,99584.94
2022-10-03T22:30:47.826Z,99580.00
2022-10-03T22:33:32.527Z,99589.69
2022-10-03T22:36:03.279Z,99586.91
2022-10-03T22:38:35.509Z,99588.19
2022-10-03T22:41:06.256Z,99577.88
2022-10-03T22:43:35.964Z,99579.09
2022-10-03T22:46:03.506Z,99579.91
2022-10-03T22:48:46.429Z,99574.91
2022-10-03T22:51:15.087Z,99576.88
2022-10-03T22:53:47.288Z,99577.44
2022-10-03T22:56:40.265Z,99572.50
2022-10-03T22:59:10.254Z,99568.78
2022-10-03T23:01:37.305Z,99574.75
2022-10-03T23:04:05.564Z,99575.13
2022-10-03T23:07:06.055Z,99581.75
2022-10-03T23:09:35.793Z,99584.53
2022-10-03T23:12:04.333Z,99578.56
2022-10-03T23:14:36.749Z,99579.53
2022-10-03T23:17:22.219Z,99575.91
2022-10-03T23:20:22.552Z,99578.34
2022-10-03T23:22:57.640Z,99581.75
2022-10-03T23:25:26.768Z,99580.44
2022-10-03T23:28:00.182Z,99577.19
2022-10-03T23:30:26.858Z,99577.19
2022-10-03T23:32:54.879Z,99583.00
2022-10-03T23:35:42.929Z,99576.81
2022-10-03T23:38:35.240Z,99580.41
2022-10-03T23:41:28.328Z,99576.78
2022-10-03T23:43:58.447Z,99575.94
2022-10-03T23:46:28.081Z,99575.09
2022-10-03T23:48:56.876Z,99584.28
2022-10-03T23:51:28.070Z,99578.88
2022-10-03T23:53:58.458Z,99587.13
2022-10-03T23:56:38.980Z,99585.69
2022-10-03T23:59:05.305Z,99575.78
